logo
Search for airport 
image banner adimage banner adimage banner ad
image banner ad

SWGN - Araguaína

Located in Araguaína, Brazil

ICAO - SWGN, IATA - AUX

Data provided by Airmate  

General information

Coordinates: S7°13'42" W48°14'27"
Elevation is 770 feet MSL.
Magnetic variation is -21° East
View others Airports in Tocatins

Operational data

Special qualification required
Current time UTC:
Current local time:
Weather at : - ( 0 km )
METAR: LWSK 140420Z VRB02KT CAVOK 09/07 Q1026 NOSIG
View NOTAMs / SUP AIP / TFR affecting this airport [VIEW]
Communications frequencies: [VIEW]

Runways:

RWY identifierQFULength (ft)Width (ft)SurfaceLDA (ft)
271924150ASPH
091924150ASPH

Airport contact information

Address: Araguaína Brazil

Satellite view of SWGN